Time;durP1;ratioP1;P1;durP2;ratioP2;P2;SDS_P1;SDS_P2;PMS_P1;PMS_P2;Temp;Humidity;BMP_temperature;BMP_pressure;BME280_temperature;BME280_humidity;BME280_pressure;Samples;Min_cycle;Max_cycle;Signal;HPM_P1;HPM_P2
2022/08/21 00:00:09;;;;;;;9.77;4.00;;;;;;;;;;5074954;28;20070;-84
2022/08/21 00:02:35;;;;;;;7.20;4.05;;;;;;;;;;5075714;28;20020;-82
2022/08/21 00:05:02;;;;;;;4.95;3.80;;;;;;;;;;5075813;28;20478;-81
2022/08/21 00:07:28;;;;;;;6.38;4.38;;;;;;;;;;5075624;28;20369;-81
2022/08/21 00:09:55;;;;;;;5.63;3.72;;;;;;;;;;5075651;28;20409;-83
2022/08/21 00:12:21;;;;;;;11.45;4.78;;;;;;;;;;5075624;28;20021;-80
2022/08/21 00:14:47;;;;;;;7.72;3.55;;;;;;;;;;5075480;28;20028;-80
2022/08/21 00:17:13;;;;;;;5.35;4.35;;;;;;;;;;5075533;28;20494;-81
2022/08/21 00:19:40;;;;;;;6.25;3.97;;;;;;;;;;5075525;28;20057;-82
2022/08/21 00:22:06;;;;;;;5.78;3.97;;;;;;;;;;5075410;28;20031;-83
2022/08/21 00:24:32;;;;;;;5.63;4.00;;;;;;;;;;5075512;28;20040;-82
2022/08/21 00:26:58;;;;;;;5.13;4.15;;;;;;;;;;5075334;28;20044;-82
2022/08/21 00:29:24;;;;;;;7.10;4.05;;;;;;;;;;5075245;28;20030;-82
2022/08/21 00:31:50;;;;;;;6.15;4.40;;;;;;;;;;5075334;28;20510;-83
2022/08/21 00:34:17;;;;;;;6.13;4.30;;;;;;;;;;5075374;28;20024;-84
2022/08/21 00:36:43;;;;;;;5.10;4.00;;;;;;;;;;5075224;28;20475;-80
2022/08/21 00:39:09;;;;;;;6.32;4.07;;;;;;;;;;5075255;28;20037;-83
2022/08/21 00:41:36;;;;;;;6.15;4.03;;;;;;;;;;5075126;28;20125;-80
2022/08/21 00:44:03;;;;;;;8.00;4.65;;;;;;;;;;5075068;28;20406;-82
2022/08/21 00:46:30;;;;;;;7.18;4.20;;;;;;;;;;5075021;28;20408;-83
2022/08/21 00:48:56;;;;;;;6.30;3.90;;;;;;;;;;5074965;28;20051;-85
2022/08/21 00:51:43;;;;;;;7.70;4.60;;;;;;;;;;5074798;28;20039;-80
2022/08/21 00:54:10;;;;;;;5.72;4.30;;;;;;;;;;5074870;28;20023;-79
2022/08/21 00:56:36;;;;;;;8.48;4.35;;;;;;;;;;5074926;28;20021;-81
2022/08/21 00:59:06;;;;;;;5.32;4.10;;;;;;;;;;5074816;28;20036;-82
2022/08/21 01:01:32;;;;;;;7.03;4.65;;;;;;;;;;5074675;28;20070;-83
2022/08/21 01:03:58;;;;;;;5.57;4.43;;;;;;;;;;5074733;28;20020;-80
2022/08/21 01:06:24;;;;;;;5.15;4.47;;;;;;;;;;5074574;28;20113;-81
2022/08/21 01:08:50;;;;;;;5.13;4.63;;;;;;;;;;5073315;28;20021;-84
2022/08/21 01:11:17;;;;;;;6.30;4.55;;;;;;;;;;5073017;28;20033;-82
2022/08/21 01:13:46;;;;;;;9.95;4.95;;;;;;;;;;5074423;28;20035;-81
2022/08/21 01:16:14;;;;;;;8.13;5.03;;;;;;;;;;5074347;28;20112;-84
2022/08/21 01:18:40;;;;;;;7.82;4.60;;;;;;;;;;5074359;28;20048;-84
2022/08/21 01:21:07;;;;;;;8.23;4.90;;;;;;;;;;5074278;28;20060;-81
2022/08/21 01:23:35;;;;;;;5.38;4.13;;;;;;;;;;5074065;28;20103;-83
2022/08/21 01:26:01;;;;;;;5.60;4.82;;;;;;;;;;5074160;28;20028;-84
2022/08/21 01:28:30;;;;;;;7.75;4.43;;;;;;;;;;5074142;28;20020;-82
2022/08/21 01:30:56;;;;;;;7.00;5.00;;;;;;;;;;5074097;28;20016;-82
2022/08/21 01:33:25;;;;;;;7.25;4.63;;;;;;;;;;5074038;28;20031;-84
2022/08/21 01:35:51;;;;;;;6.75;4.60;;;;;;;;;;5072431;28;20063;-84
2022/08/21 01:38:17;;;;;;;7.82;5.13;;;;;;;;;;5073889;28;20035;-80
2022/08/21 01:40:43;;;;;;;7.82;5.07;;;;;;;;;;5074072;28;20053;-84
2022/08/21 01:43:10;;;;;;;8.95;5.15;;;;;;;;;;5073957;28;20506;-83
2022/08/21 01:45:36;;;;;;;9.43;5.10;;;;;;;;;;5073950;28;20032;-82
2022/08/21 01:48:02;;;;;;;6.53;4.72;;;;;;;;;;5074763;28;20052;-81
2022/08/21 01:50:29;;;;;;;5.88;5.18;;;;;;;;;;5104516;28;20051;-82
2022/08/21 01:52:55;;;;;;;8.40;5.45;;;;;;;;;;5103281;28;20027;-83
2022/08/21 01:55:22;;;;;;;7.20;5.05;;;;;;;;;;5102942;28;20445;-82
2022/08/21 01:57:48;;;;;;;6.70;5.50;;;;;;;;;;5104501;28;20018;-84
2022/08/21 02:00:18;;;;;;;8.40;5.53;;;;;;;;;;5102950;28;20525;-81
2022/08/21 02:02:44;;;;;;;9.73;5.53;;;;;;;;;;5102643;28;20023;-84
2022/08/21 02:05:11;;;;;;;7.28;5.57;;;;;;;;;;5104311;28;20027;-81
2022/08/21 02:07:39;;;;;;;7.80;5.47;;;;;;;;;;5102796;28;20360;-80
2022/08/21 02:10:05;;;;;;;8.98;5.45;;;;;;;;;;5102534;28;20019;-80
2022/08/21 02:12:31;;;;;;;8.65;5.88;;;;;;;;;;5099656;28;20012;-83
2022/08/21 02:14:58;;;;;;;6.50;5.05;;;;;;;;;;5103363;28;20492;-83
2022/08/21 02:17:24;;;;;;;9.02;6.13;;;;;;;;;;5104135;28;20443;-84
2022/08/21 02:19:50;;;;;;;8.25;6.35;;;;;;;;;;5102069;28;20020;-84
2022/08/21 02:22:16;;;;;;;6.40;5.80;;;;;;;;;;5103210;28;20027;-83
2022/08/21 02:24:43;;;;;;;7.88;6.03;;;;;;;;;;5103765;28;20020;-83
2022/08/21 02:27:09;;;;;;;6.45;5.72;;;;;;;;;;5102009;28;20062;-82
2022/08/21 02:29:35;;;;;;;12.13;5.85;;;;;;;;;;5102186;28;20543;-81
2022/08/21 02:32:01;;;;;;;9.27;5.75;;;;;;;;;;5103631;28;20024;-81
2022/08/21 02:34:27;;;;;;;7.25;5.70;;;;;;;;;;5101756;28;20463;-81
2022/08/21 02:36:54;;;;;;;9.50;6.20;;;;;;;;;;5103527;28;20024;-80
2022/08/21 02:39:20;;;;;;;9.07;5.60;;;;;;;;;;5103066;28;20035;-83
2022/08/21 02:41:46;;;;;;;7.63;6.38;;;;;;;;;;5100594;28;20584;-80
2022/08/21 02:44:12;;;;;;;14.95;7.70;;;;;;;;;;5099445;28;20024;-84
2022/08/21 02:46:38;;;;;;;8.07;6.43;;;;;;;;;;5102956;28;20094;-83
2022/08/21 02:49:04;;;;;;;7.90;7.10;;;;;;;;;;5103451;28;20121;-84
2022/08/21 02:51:30;;;;;;;10.98;7.10;;;;;;;;;;5101774;28;20016;-80
2022/08/21 02:53:57;;;;;;;9.00;6.65;;;;;;;;;;5101772;28;20028;-80
2022/08/21 02:56:23;;;;;;;8.70;6.50;;;;;;;;;;5103302;28;20028;-83
2022/08/21 02:58:51;;;;;;;9.70;6.45;;;;;;;;;;5101572;28;20031;-82
2022/08/21 03:01:17;;;;;;;11.15;6.75;;;;;;;;;;5102782;28;20031;-80
2022/08/21 03:03:45;;;;;;;8.45;6.82;;;;;;;;;;5103418;28;20012;-81
2022/08/21 03:06:12;;;;;;;8.23;5.65;;;;;;;;;;5101605;28;20069;-83
2022/08/21 03:08:39;;;;;;;7.90;6.22;;;;;;;;;;5102717;28;20043;-81
2022/08/21 03:11:05;;;;;;;7.78;6.25;;;;;;;;;;5103559;28;20020;-83
2022/08/21 03:13:32;;;;;;;8.45;6.60;;;;;;;;;;5100398;28;20026;-81
2022/08/21 03:15:58;;;;;;;6.47;5.88;;;;;;;;;;5104550;28;20028;-81
2022/08/21 03:18:24;;;;;;;8.68;6.97;;;;;;;;;;5110274;28;20035;-84
2022/08/21 03:20:50;;;;;;;36.95;29.40;;;;;;;;;;5115633;28;20023;-82
2022/08/21 03:23:17;;;;;;;21.00;15.82;;;;;;;;;;5117294;28;20072;-84
2022/08/21 03:25:44;;;;;;;9.55;8.55;;;;;;;;;;5117271;28;20034;-81
2022/08/21 03:28:13;;;;;;;9.70;6.53;;;;;;;;;;5115717;28;20386;-82
2022/08/21 03:30:41;;;;;;;7.78;6.15;;;;;;;;;;5116973;28;20199;-83
2022/08/21 03:33:07;;;;;;;6.65;5.85;;;;;;;;;;5117077;28;20110;-80
2022/08/21 03:35:33;;;;;;;9.00;5.95;;;;;;;;;;5116885;28;20080;-81
2022/08/21 03:37:59;;;;;;;7.00;5.55;;;;;;;;;;5117142;28;20467;-80
2022/08/21 03:40:25;;;;;;;8.25;5.93;;;;;;;;;;5116871;28;20034;-79
2022/08/21 03:42:52;;;;;;;9.38;7.00;;;;;;;;;;5116703;28;20026;-82
2022/08/21 03:45:18;;;;;;;10.30;7.20;;;;;;;;;;5117007;28;20019;-83
2022/08/21 03:47:55;;;;;;;7.40;6.60;;;;;;;;;;5116687;28;20052;-83
2022/08/21 03:50:22;;;;;;;9.88;7.85;;;;;;;;;;5116753;28;20098;-81
2022/08/21 03:52:48;;;;;;;10.15;8.52;;;;;;;;;;5116607;28;20024;-80
2022/08/21 03:55:14;;;;;;;10.27;8.32;;;;;;;;;;5116504;28;20110;-82
2022/08/21 03:57:40;;;;;;;9.85;7.68;;;;;;;;;;5116518;28;20019;-83
2022/08/21 04:00:08;;;;;;;9.27;7.88;;;;;;;;;;5116480;28;20467;-84
2022/08/21 04:02:35;;;;;;;9.93;7.82;;;;;;;;;;5115797;28;20489;-83
2022/08/21 04:05:01;;;;;;;11.88;8.32;;;;;;;;;;5116369;28;20023;-83
2022/08/21 04:07:27;;;;;;;8.63;7.82;;;;;;;;;;5114902;28;20437;-81
2022/08/21 04:09:53;;;;;;;9.88;8.77;;;;;;;;;;5114781;28;20027;-82
2022/08/21 04:12:19;;;;;;;9.70;8.15;;;;;;;;;;5096582;28;20076;-82
2022/08/21 04:14:45;;;;;;;9.77;7.93;;;;;;;;;;5075522;28;20064;-82
2022/08/21 04:17:11;;;;;;;10.23;9.23;;;;;;;;;;5083361;28;20029;-84
2022/08/21 04:19:37;;;;;;;11.82;9.02;;;;;;;;;;5095787;28;20474;-84
2022/08/21 04:22:03;;;;;;;11.95;9.25;;;;;;;;;;5095780;28;20044;-83
2022/08/21 04:24:30;;;;;;;10.88;9.77;;;;;;;;;;5095727;28;20431;-81
2022/08/21 04:26:56;;;;;;;9.32;8.43;;;;;;;;;;5081171;28;20108;-82
2022/08/21 04:29:22;;;;;;;9.68;8.73;;;;;;;;;;5075979;28;20033;-83
2022/08/21 04:31:48;;;;;;;14.13;9.05;;;;;;;;;;5094781;28;20024;-84
2022/08/21 04:34:16;;;;;;;12.05;9.75;;;;;;;;;;5087232;28;20388;-82
2022/08/21 04:36:42;;;;;;;9.57;8.30;;;;;;;;;;5074964;28;20059;-81
2022/08/21 04:39:08;;;;;;;9.30;8.40;;;;;;;;;;5089708;28;20046;-81
2022/08/21 04:41:35;;;;;;;8.52;7.47;;;;;;;;;;5084025;28;20032;-82
2022/08/21 04:44:02;;;;;;;8.85;7.63;;;;;;;;;;5088807;28;20040;-83
2022/08/21 04:46:28;;;;;;;9.38;8.50;;;;;;;;;;5086077;28;20038;-81
2022/08/21 04:48:54;;;;;;;10.23;8.55;;;;;;;;;;5081963;28;20075;-83
2022/08/21 04:51:25;;;;;;;10.20;8.30;;;;;;;;;;5074775;28;20400;-82
2022/08/21 04:54:10;;;;;;;8.93;8.02;;;;;;;;;;5078626;28;20039;-83
2022/08/21 04:56:36;;;;;;;;;;;;;;;;;;5087053;28;20055;-83
2022/08/21 04:59:04;;;;;;;8.18;7.47;;;;;;;;;;5093655;28;19911;-83
2022/08/21 05:01:32;;;;;;;9.48;8.15;;;;;;;;;;5086005;28;20028;-83
2022/08/21 05:03:59;;;;;;;9.40;8.48;;;;;;;;;;5081608;28;20078;-84
2022/08/21 05:06:26;;;;;;;9.70;8.45;;;;;;;;;;5090345;28;20588;-82
2022/08/21 05:08:53;;;;;;;12.98;8.57;;;;;;;;;;5094059;28;20036;-82
2022/08/21 05:11:21;;;;;;;10.57;9.55;;;;;;;;;;5085747;28;20024;-83
2022/08/21 05:13:48;;;;;;;18.00;15.88;;;;;;;;;;5091394;28;20121;-83
2022/08/21 05:16:15;;;;;;;8.80;7.90;;;;;;;;;;5075134;28;20479;-82
2022/08/21 05:18:41;;;;;;;10.05;8.88;;;;;;;;;;5073946;28;20024;-84
2022/08/21 05:21:09;;;;;;;9.02;7.60;;;;;;;;;;5073817;28;20066;-84
2022/08/21 05:23:35;;;;;;;9.95;8.05;;;;;;;;;;5074293;28;20013;-82
2022/08/21 05:26:01;;;;;;;9.63;8.43;;;;;;;;;;5074065;28;20017;-82
2022/08/21 05:28:28;;;;;;;8.02;7.07;;;;;;;;;;5088984;28;20028;-82
2022/08/21 05:30:54;;;;;;;8.68;7.63;;;;;;;;;;5074674;28;20107;-84
2022/08/21 05:33:20;;;;;;;8.73;7.20;;;;;;;;;;5087962;28;21284;-82
2022/08/21 05:35:49;;;;;;;9.05;7.38;;;;;;;;;;5093798;28;20108;-84
2022/08/21 05:38:15;;;;;;;8.57;7.45;;;;;;;;;;5094237;28;20037;-82
2022/08/21 05:40:42;;;;;;;8.43;7.45;;;;;;;;;;5094296;28;20020;-81
2022/08/21 05:43:10;;;;;;;7.72;6.90;;;;;;;;;;5093353;28;20028;-82
2022/08/21 05:45:36;;;;;;;8.30;7.43;;;;;;;;;;5094148;28;20031;-82
2022/08/21 05:48:11;;;;;;;8.02;7.20;;;;;;;;;;5093841;28;20117;-84
2022/08/21 05:50:38;;;;;;;8.65;7.00;;;;;;;;;;5083825;28;20418;-82
2022/08/21 05:53:04;;;;;;;8.20;7.28;;;;;;;;;;5073271;28;20025;-83
2022/08/21 05:55:30;;;;;;;8.60;7.03;;;;;;;;;;5073491;28;20468;-84
2022/08/21 05:57:56;;;;;;;10.07;8.02;;;;;;;;;;5090301;28;20540;-82
2022/08/21 06:00:22;;;;;;;10.38;8.35;;;;;;;;;;5093791;28;20036;-84
2022/08/21 06:02:50;;;;;;;9.73;8.25;;;;;;;;;;5092357;28;20032;-84
2022/08/21 06:05:16;;;;;;;11.15;8.98;;;;;;;;;;5073806;28;20048;-84
2022/08/21 06:07:42;;;;;;;9.50;7.80;;;;;;;;;;5073559;28;20028;-82
2022/08/21 06:10:08;;;;;;;9.13;8.23;;;;;;;;;;5073536;28;20035;-81
2022/08/21 06:12:34;;;;;;;13.80;8.70;;;;;;;;;;5073455;28;20035;-82
2022/08/21 06:15:00;;;;;;;8.15;7.40;;;;;;;;;;5073466;28;20016;-87
2022/08/21 06:17:26;;;;;;;9.10;8.20;;;;;;;;;;5073051;28;20107;-80
2022/08/21 06:19:53;;;;;;;9.07;7.50;;;;;;;;;;5073816;28;20391;-82
2022/08/21 06:22:20;;;;;;;7.28;5.88;;;;;;;;;;5093061;28;20022;-83
2022/08/21 06:24:46;;;;;;;7.97;7.00;;;;;;;;;;5084791;28;20503;-82
2022/08/21 06:27:12;;;;;;;7.88;7.07;;;;;;;;;;5073048;28;20035;-83
2022/08/21 06:29:38;;;;;;;7.28;6.57;;;;;;;;;;5078978;28;20022;-84
2022/08/21 06:32:08;;;;;;;6.50;5.82;;;;;;;;;;5082962;28;20039;-82
2022/08/21 06:34:38;;;;;;;8.55;6.50;;;;;;;;;;5075641;28;20066;-82
2022/08/21 06:37:04;;;;;;;6.18;5.55;;;;;;;;;;5072968;28;20493;-83
2022/08/21 06:39:31;;;;;;;6.93;5.97;;;;;;;;;;5080584;28;20470;-83
2022/08/21 06:41:57;;;;;;;7.70;6.32;;;;;;;;;;5085835;28;20052;-81
2022/08/21 06:44:23;;;;;;;7.85;6.15;;;;;;;;;;5073622;28;20035;-86
2022/08/21 06:46:49;;;;;;;7.80;6.32;;;;;;;;;;5072586;28;20036;-83
2022/08/21 06:49:15;;;;;;;9.65;6.68;;;;;;;;;;5089240;28;20021;-83
2022/08/21 06:51:41;;;;;;;7.43;6.22;;;;;;;;;;5081078;28;20352;-82
2022/08/21 06:54:08;;;;;;;7.75;6.95;;;;;;;;;;5080448;28;20499;-83
2022/08/21 06:56:36;;;;;;;7.60;5.43;;;;;;;;;;5093172;28;20047;-83
2022/08/21 06:59:05;;;;;;;8.25;5.30;;;;;;;;;;5076846;28;20082;-85
2022/08/21 07:01:34;;;;;;;7.18;6.43;;;;;;;;;;5091783;28;20436;-89
2022/08/21 07:04:01;;;;;;;8.35;6.18;;;;;;;;;;5076806;28;20024;-86
2022/08/21 07:06:27;;;;;;;9.15;6.75;;;;;;;;;;5082222;28;20028;-83
2022/08/21 07:08:53;;;;;;;8.38;7.05;;;;;;;;;;5079320;28;20475;-83
2022/08/21 07:11:20;;;;;;;8.85;6.97;;;;;;;;;;5082162;28;20033;-82
2022/08/21 07:13:47;;;;;;;7.97;6.65;;;;;;;;;;5076606;28;20099;-83
2022/08/21 07:16:13;;;;;;;9.65;7.47;;;;;;;;;;5086460;28;20126;-83
2022/08/21 07:18:39;;;;;;;9.57;7.60;;;;;;;;;;5078660;28;20086;-82
2022/08/21 07:21:07;;;;;;;9.10;7.45;;;;;;;;;;5080844;28;20024;-82
2022/08/21 07:23:34;;;;;;;8.50;6.25;;;;;;;;;;5096824;28;20020;-84
2022/08/21 07:26:00;;;;;;;8.65;6.22;;;;;;;;;;5096709;28;20047;-81
2022/08/21 07:28:27;;;;;;;8.38;6.50;;;;;;;;;;5096676;28;20016;-82
2022/08/21 07:30:55;;;;;;;6.65;5.53;;;;;;;;;;5086055;28;20364;-83
2022/08/21 07:33:21;;;;;;;8.82;5.78;;;;;;;;;;5079774;28;20025;-83
2022/08/21 07:35:47;;;;;;;9.50;6.10;;;;;;;;;;5074822;28;20132;-82
2022/08/21 07:38:13;;;;;;;7.70;5.60;;;;;;;;;;5076355;28;20024;-82
2022/08/21 07:40:39;;;;;;;11.23;6.30;;;;;;;;;;5076206;28;20029;-83
2022/08/21 07:43:06;;;;;;;8.57;5.65;;;;;;;;;;5076299;28;20020;-83
2022/08/21 07:45:32;;;;;;;7.22;6.03;;;;;;;;;;5075880;28;20129;-82
2022/08/21 07:47:58;;;;;;;7.78;6.18;;;;;;;;;;5075824;28;20055;-82
2022/08/21 07:50:24;;;;;;;8.60;6.57;;;;;;;;;;5078025;28;20032;-82
2022/08/21 07:52:50;;;;;;;9.15;7.15;;;;;;;;;;5084349;28;20107;-82
2022/08/21 07:55:18;;;;;;;9.70;6.68;;;;;;;;;;5079910;28;20024;-82
2022/08/21 07:57:44;;;;;;;9.25;6.30;;;;;;;;;;5087509;28;20051;-82
2022/08/21 08:00:12;;;;;;;6.60;5.47;;;;;;;;;;5083907;28;20387;-82
2022/08/21 08:02:39;;;;;;;6.25;4.75;;;;;;;;;;5080593;28;20356;-82
2022/08/21 08:05:07;;;;;;;7.20;5.05;;;;;;;;;;5076574;28;20028;-81
2022/08/21 08:07:34;;;;;;;8.02;5.10;;;;;;;;;;5083383;28;20553;-81
2022/08/21 08:10:00;;;;;;;5.43;4.63;;;;;;;;;;5075597;28;20535;-81
2022/08/21 08:15:13;;;;;;;6.43;5.63;;;;;;;;;;5075189;28;20109;-82
2022/08/21 08:17:39;;;;;;;9.18;5.20;;;;;;;;;;5087909;28;20517;-81
2022/08/21 08:20:08;;;;;;;8.98;5.68;;;;;;;;;;5079027;28;20063;-81
2022/08/21 08:22:35;;;;;;;7.00;5.55;;;;;;;;;;5092925;28;20033;-82
2022/08/21 08:25:02;;;;;;;6.90;4.15;;;;;;;;;;5086638;28;20050;-81
2022/08/21 08:27:28;;;;;;;6.03;3.40;;;;;;;;;;5093036;28;20035;-82
2022/08/21 08:29:55;;;;;;;4.40;3.63;;;;;;;;;;5083327;28;20036;-81
2022/08/21 08:32:21;;;;;;;4.53;3.20;;;;;;;;;;5075320;28;20480;-82
2022/08/21 08:34:48;;;;;;;6.30;3.88;;;;;;;;;;5078693;28;20051;-82
2022/08/21 08:37:15;;;;;;;5.35;4.07;;;;;;;;;;5084547;28;20049;-82
2022/08/21 08:39:41;;;;;;;4.90;3.55;;;;;;;;;;5095298;28;20020;-82
2022/08/21 08:42:09;;;;;;;4.13;3.58;;;;;;;;;;5090308;28;20028;-80
2022/08/21 08:44:36;;;;;;;5.03;4.13;;;;;;;;;;5085031;28;20017;-81
2022/08/21 08:47:03;;;;;;;4.75;3.53;;;;;;;;;;5074688;28;20072;-81
2022/08/21 08:49:29;;;;;;;6.03;3.42;;;;;;;;;;5073629;28;20029;-80
2022/08/21 08:52:05;;;;;;;5.22;3.92;;;;;;;;;;5074924;28;20035;-80
2022/08/21 08:54:38;;;;;;;4.22;3.83;;;;;;;;;;5074884;28;20020;-81
2022/08/21 08:57:08;;;;;;;4.03;3.17;;;;;;;;;;5074889;28;20031;-81
2022/08/21 08:59:48;;;;;;;5.85;3.92;;;;;;;;;;5074764;28;20045;-81
2022/08/21 09:02:15;;;;;;;4.82;3.92;;;;;;;;;;5074759;28;20111;-81
2022/08/21 09:04:42;;;;;;;6.50;3.92;;;;;;;;;;5078920;28;20417;-82
2022/08/21 09:07:26;;;;;;;8.93;4.38;;;;;;;;;;5086204;28;20017;-83
2022/08/21 09:09:52;;;;;;;6.80;3.78;;;;;;;;;;5074510;28;20034;-82
2022/08/21 09:12:30;;;;;;;4.82;4.13;;;;;;;;;;5082699;28;20028;-81
2022/08/21 09:15:17;;;;;;;5.20;3.85;;;;;;;;;;5093288;28;20028;-82
2022/08/21 09:17:46;;;;;;;5.18;3.97;;;;;;;;;;5077459;28;20032;-82
2022/08/21 09:20:30;;;;;;;5.68;3.97;;;;;;;;;;5074214;28;20055;-81
2022/08/21 09:23:08;;;;;;;6.68;3.67;;;;;;;;;;5074087;28;20040;-81
2022/08/21 09:25:57;;;;;;;5.68;3.47;;;;;;;;;;5077666;28;20071;-81
2022/08/21 09:28:23;;;;;;;6.40;4.30;;;;;;;;;;5068551;28;20044;-82
2022/08/21 09:30:51;;;;;;;5.35;3.83;;;;;;;;;;5089196;28;20055;-80
2022/08/21 09:33:17;;;;;;;7.15;4.50;;;;;;;;;;5091837;28;20383;-81
2022/08/21 09:35:53;;;;;;;6.20;4.28;;;;;;;;;;5079346;28;20028;-80
2022/08/21 09:38:25;;;;;;;5.90;4.63;;;;;;;;;;5080972;28;20028;-83
2022/08/21 09:40:58;;;;;;;7.90;4.53;;;;;;;;;;5093965;28;20024;-82
2022/08/21 09:43:25;;;;;;;6.88;5.10;;;;;;;;;;5088760;28;20017;-79
2022/08/21 09:46:03;;;;;;;8.40;6.03;;;;;;;;;;5081859;28;20035;-82
2022/08/21 09:48:31;;;;;;;7.47;5.15;;;;;;;;;;5092999;28;20044;-84
2022/08/21 09:51:06;;;;;;;9.48;6.25;;;;;;;;;;5084758;28;20029;-82
2022/08/21 09:53:34;;;;;;;11.30;8.60;;;;;;;;;;5079263;28;20028;-83
2022/08/21 09:58:49;;;;;;;14.25;9.68;;;;;;;;;;5073897;28;20043;-82
2022/08/21 10:01:26;;;;;;;14.45;9.38;;;;;;;;;;5081260;28;20089;-81
2022/08/21 10:04:11;;;;;;;13.73;9.43;;;;;;;;;;5079537;28;20107;-82
2022/08/21 10:06:37;;;;;;;10.80;8.50;;;;;;;;;;5076324;28;20030;-81
2022/08/21 10:09:06;;;;;;;12.60;9.45;;;;;;;;;;5082325;28;20085;-78
2022/08/21 10:11:34;;;;;;;12.20;9.70;;;;;;;;;;5093773;28;20105;-81
2022/08/21 10:14:18;;;;;;;13.00;10.60;;;;;;;;;;5080422;28;20507;-81
2022/08/21 10:17:04;;;;;;;13.02;11.13;;;;;;;;;;5073194;28;20564;-81
2022/08/21 10:19:49;;;;;;;15.48;11.68;;;;;;;;;;5077536;28;20484;-81
2022/08/21 10:22:15;;;;;;;12.82;10.82;;;;;;;;;;5087826;28;20032;-80
2022/08/21 10:24:41;;;;;;;14.13;11.18;;;;;;;;;;5090995;28;20021;-81
2022/08/21 10:27:17;;;;;;;13.77;11.57;;;;;;;;;;5074252;28;20052;-82
2022/08/21 10:29:51;;;;;;;13.98;11.85;;;;;;;;;;5084227;28;20494;-81
2022/08/21 10:32:16;;;;;;;;;;;;;;;;;;5092610;28;20023;-81
2022/08/21 10:34:57;;;;;;;14.65;11.48;;;;;;;;;;5092521;28;19918;-82
2022/08/21 10:37:26;;;;;;;14.25;12.23;;;;;;;;;;5073256;28;20036;-82
2022/08/21 10:40:11;;;;;;;13.38;11.73;;;;;;;;;;5072620;28;20090;-81
2022/08/21 10:42:55;;;;;;;13.20;11.90;;;;;;;;;;5072877;28;20542;-82
2022/08/21 10:45:28;;;;;;;13.98;11.82;;;;;;;;;;5075088;28;20028;-83
2022/08/21 10:47:57;;;;;;;14.25;11.07;;;;;;;;;;5092184;28;20048;-81
2022/08/21 10:50:29;;;;;;;14.65;11.45;;;;;;;;;;5073972;28;20029;-81
2022/08/21 10:53:05;;;;;;;15.60;11.05;;;;;;;;;;5081298;28;20031;-82
2022/08/21 10:55:36;;;;;;;18.73;12.45;;;;;;;;;;5087549;28;20042;-83
2022/08/21 10:58:10;;;;;;;12.63;10.85;;;;;;;;;;5088005;28;20028;-79
2022/08/21 11:00:44;;;;;;;13.13;10.25;;;;;;;;;;5075834;28;20032;-84
2022/08/21 11:03:16;;;;;;;13.82;10.93;;;;;;;;;;5084710;28;20029;-81
2022/08/21 11:05:47;;;;;;;15.10;10.65;;;;;;;;;;5076412;28;20035;-79
2022/08/21 11:08:15;;;;;;;15.00;11.95;;;;;;;;;;5084180;28;20097;-82
2022/08/21 11:11:11;;;;;;;12.05;10.05;;;;;;;;;;5072711;28;20039;-82
2022/08/21 11:13:40;;;;;;;12.43;9.77;;;;;;;;;;5072484;28;20036;-83
2022/08/21 11:16:11;;;;;;;14.23;10.02;;;;;;;;;;5072446;28;20559;-82
2022/08/21 11:18:50;;;;;;;13.63;11.40;;;;;;;;;;5074989;28;20094;-82
2022/08/21 11:21:31;;;;;;;12.45;10.65;;;;;;;;;;5076546;28;20097;-83
2022/08/21 11:24:17;;;;;;;12.82;10.23;;;;;;;;;;5077706;28;20032;-82
2022/08/21 11:26:48;;;;;;;14.82;10.45;;;;;;;;;;5072795;28;20437;-84
2022/08/21 11:29:18;;;;;;;12.27;10.13;;;;;;;;;;5087453;28;20119;-83
2022/08/21 11:31:55;;;;;;;13.73;9.73;;;;;;;;;;5079768;28;20108;-83
2022/08/21 11:34:24;;;;;;;13.10;9.30;;;;;;;;;;5072232;28;20058;-83
2022/08/21 11:37:09;;;;;;;12.93;9.73;;;;;;;;;;5072175;28;20048;-82
2022/08/21 11:39:35;;;;;;;15.98;9.70;;;;;;;;;;5080546;28;20028;-83
2022/08/21 11:42:21;;;;;;;12.05;9.15;;;;;;;;;;5074797;28;20028;-81
2022/08/21 11:45:06;;;;;;;12.30;9.52;;;;;;;;;;5075907;28;20028;-80
2022/08/21 11:47:32;;;;;;;12.43;9.10;;;;;;;;;;5079458;28;20045;-81
2022/08/21 11:50:06;;;;;;;10.73;8.38;;;;;;;;;;5091720;28;20367;-85
2022/08/21 11:52:41;;;;;;;10.80;8.50;;;;;;;;;;5093152;28;20411;-81
2022/08/21 11:55:16;;;;;;;11.80;8.20;;;;;;;;;;5075965;28;20016;-80
2022/08/21 11:57:54;;;;;;;9.50;8.38;;;;;;;;;;5086021;28;20040;-80
2022/08/21 12:00:23;;;;;;;9.85;8.73;;;;;;;;;;5079627;28;20028;-80
2022/08/21 12:02:51;;;;;;;10.35;8.27;;;;;;;;;;5075512;28;20032;-81
2022/08/21 12:05:36;;;;;;;8.77;7.82;;;;;;;;;;5075779;28;20024;-84
2022/08/21 12:08:02;;;;;;;7.95;6.40;;;;;;;;;;5075721;28;20075;-82
2022/08/21 12:10:34;;;;;;;9.88;7.05;;;;;;;;;;5075743;28;20103;-81
2022/08/21 12:13:11;;;;;;;8.60;6.38;;;;;;;;;;5075745;28;20405;-82
2022/08/21 12:15:37;;;;;;;8.98;7.00;;;;;;;;;;5075280;28;20025;-84
2022/08/21 12:18:05;;;;;;;10.50;7.28;;;;;;;;;;5075745;28;20025;-83
2022/08/21 12:20:37;;;;;;;9.80;7.05;;;;;;;;;;5075368;28;20488;-81
2022/08/21 12:23:09;;;;;;;8.70;7.43;;;;;;;;;;5075571;28;20040;-83
2022/08/21 12:25:43;;;;;;;10.93;7.05;;;;;;;;;;5075364;28;20023;-82
2022/08/21 12:28:23;;;;;;;7.95;6.90;;;;;;;;;;5075385;28;20032;-81
2022/08/21 12:30:49;;;;;;;9.38;6.97;;;;;;;;;;5075565;28;20025;-82
2022/08/21 12:33:19;;;;;;;7.47;6.53;;;;;;;;;;5075236;28;20028;-82
2022/08/21 12:35:46;;;;;;;8.20;6.57;;;;;;;;;;5075311;28;20032;-82
2022/08/21 12:38:16;;;;;;;8.23;6.90;;;;;;;;;;5075368;28;20032;-72
2022/08/21 12:40:44;;;;;;;9.30;6.40;;;;;;;;;;5075053;28;20031;-82
2022/08/21 12:43:29;;;;;;;7.78;5.22;;;;;;;;;;5075174;28;20035;-82
2022/08/21 12:45:56;;;;;;;7.32;6.20;;;;;;;;;;5075098;28;20039;-83
2022/08/21 12:48:40;;;;;;;11.40;7.63;;;;;;;;;;5074772;28;20083;-82
2022/08/21 12:51:13;;;;;;;8.85;5.60;;;;;;;;;;5075063;28;20089;-81
2022/08/21 12:53:43;;;;;;;7.68;5.60;;;;;;;;;;5074740;28;20021;-84
2022/08/21 12:56:10;;;;;;;7.70;5.20;;;;;;;;;;5073499;28;20357;-83
2022/08/21 12:58:36;;;;;;;6.75;5.40;;;;;;;;;;5074675;28;20079;-82
2022/08/21 13:01:06;;;;;;;10.82;8.40;;;;;;;;;;5074650;28;20029;-82
2022/08/21 13:03:35;;;;;;;7.18;4.82;;;;;;;;;;5074724;28;20025;-82
2022/08/21 13:06:03;;;;;;;7.82;5.03;;;;;;;;;;5074812;28;20064;-82
2022/08/21 13:08:30;;;;;;;5.40;4.28;;;;;;;;;;5074585;28;20063;-82
2022/08/21 13:11:06;;;;;;;4.43;3.92;;;;;;;;;;5074603;28;20052;-82
2022/08/21 13:13:33;;;;;;;7.25;4.63;;;;;;;;;;5073236;28;20033;-81
2022/08/21 13:16:00;;;;;;;6.47;4.07;;;;;;;;;;5073218;28;20510;-82
2022/08/21 13:18:28;;;;;;;6.82;3.72;;;;;;;;;;5074418;28;20426;-83
2022/08/21 13:21:05;;;;;;;7.80;4.25;;;;;;;;;;5074458;28;20108;-82
2022/08/21 13:23:33;;;;;;;7.88;4.53;;;;;;;;;;5074399;28;20028;-81
2022/08/21 13:25:59;;;;;;;6.28;4.53;;;;;;;;;;5073024;28;20056;-81
2022/08/21 13:28:33;;;;;;;5.72;4.10;;;;;;;;;;5074197;28;20013;-81
2022/08/21 13:31:01;;;;;;;9.02;4.63;;;;;;;;;;5073891;28;20020;-80
2022/08/21 13:33:30;;;;;;;8.35;5.80;;;;;;;;;;5074134;28;20528;-82
2022/08/21 13:35:56;;;;;;;6.55;4.45;;;;;;;;;;5072724;28;20024;-82
2022/08/21 13:38:25;;;;;;;9.35;5.25;;;;;;;;;;5074017;28;20029;-82
2022/08/21 13:40:53;;;;;;;8.93;4.93;;;;;;;;;;5074229;28;20029;-81
2022/08/21 13:43:21;;;;;;;5.68;4.55;;;;;;;;;;5073880;28;20032;-82
2022/08/21 13:45:49;;;;;;;7.75;5.20;;;;;;;;;;5074050;28;20021;-84
2022/08/21 13:48:15;;;;;;;8.70;5.28;;;;;;;;;;5072325;28;20413;-82
2022/08/21 13:50:43;;;;;;;9.57;5.60;;;;;;;;;;5073713;28;20029;-84
2022/08/21 13:53:21;;;;;;;8.60;5.45;;;;;;;;;;5072325;28;20144;-85
2022/08/21 13:55:47;;;;;;;8.38;5.03;;;;;;;;;;5073619;28;20112;-84
2022/08/21 13:58:24;;;;;;;9.43;5.47;;;;;;;;;;5073723;28;20025;-81
2022/08/21 14:00:51;;;;;;;7.38;5.13;;;;;;;;;;5073685;28;20052;-84
2022/08/21 14:03:26;;;;;;;6.78;4.38;;;;;;;;;;5073126;28;20025;-83
2022/08/21 14:05:52;;;;;;;8.80;4.97;;;;;;;;;;5073591;28;20035;-82
2022/08/21 14:08:38;;;;;;;5.57;4.28;;;;;;;;;;5073375;28;20048;-81
2022/08/21 14:11:05;;;;;;;6.72;4.03;;;;;;;;;;5073543;28;20028;-82
2022/08/21 14:13:34;;;;;;;6.85;4.43;;;;;;;;;;5073418;28;20016;-82
2022/08/21 14:16:01;;;;;;;6.43;4.10;;;;;;;;;;5072176;28;20042;-84
2022/08/21 14:18:28;;;;;;;6.97;3.80;;;;;;;;;;5073260;28;20119;-83
2022/08/21 14:21:13;;;;;;;6.65;4.00;;;;;;;;;;5073548;28;20035;-82
2022/08/21 14:23:41;;;;;;;5.90;4.18;;;;;;;;;;5073319;28;20028;-84
2022/08/21 14:26:07;;;;;;;5.18;4.07;;;;;;;;;;5073180;28;20195;-81
2022/08/21 14:28:35;;;;;;;5.43;4.07;;;;;;;;;;5073263;28;20028;-82
2022/08/21 14:31:20;;;;;;;6.88;3.60;;;;;;;;;;5073247;28;20387;-82
2022/08/21 14:33:46;;;;;;;7.20;3.90;;;;;;;;;;5073432;28;20024;-81
2022/08/21 14:36:13;;;;;;;5.28;3.53;;;;;;;;;;5073108;28;20052;-82
2022/08/21 14:38:40;;;;;;;4.30;3.90;;;;;;;;;;5073375;28;20035;-82
2022/08/21 14:41:12;;;;;;;6.40;4.07;;;;;;;;;;5073254;28;20047;-81
2022/08/21 14:43:38;;;;;;;6.57;3.78;;;;;;;;;;5073285;28;20392;-80
2022/08/21 14:46:05;;;;;;;6.35;3.47;;;;;;;;;;5073304;28;20032;-80
2022/08/21 14:48:31;;;;;;;5.55;3.70;;;;;;;;;;5071766;28;20052;-82
2022/08/21 14:50:57;;;;;;;9.00;4.00;;;;;;;;;;5073325;28;20028;-81
2022/08/21 14:53:25;;;;;;;4.88;3.60;;;;;;;;;;5073123;28;20036;-82
2022/08/21 14:58:42;;;;;;;9.13;5.05;;;;;;;;;;5073333;28;20047;-81